Time;durP1;ratioP1;P1;durP2;ratioP2;P2;SDS_P1;SDS_P2;PMS_P1;PMS_P2;Temp;Humidity;BMP_temperature;BMP_pressure;BME280_temperature;BME280_humidity;BME280_pressure;Samples;Min_cycle;Max_cycle;Signal;HPM_P1;HPM_P2
2023/04/17 00:01:26;;;;;;;33.45;23.65;;;9.50;99.90;;;;;;2602897;54;20170;31
2023/04/17 00:04:02;;;;;;;32.87;24.30;;;9.50;99.90;;;;;;2603907;54;20034;31
2023/04/17 00:06:38;;;;;;;32.70;24.17;;;9.40;99.90;;;;;;2622234;46;20029;31
2023/04/17 00:09:14;;;;;;;36.17;26.23;;;9.50;99.90;;;;;;2604070;54;20038;31
2023/04/17 00:11:54;;;;;;;34.42;24.33;;;9.50;99.90;;;;;;2603822;54;20910;31
2023/04/17 00:14:30;;;;;;;31.60;22.77;;;9.50;99.90;;;;;;2602885;54;20750;31
2023/04/17 00:17:07;;;;;;;30.23;22.80;;;9.40;99.90;;;;;;2602703;54;20048;31
2023/04/17 00:19:46;;;;;;;27.65;20.08;;;9.50;99.90;;;;;;2602835;54;20243;31
2023/04/17 00:22:22;;;;;;;26.13;19.50;;;9.30;99.90;;;;;;2603079;54;20113;31
2023/04/17 00:24:58;;;;;;;31.45;21.40;;;9.50;99.90;;;;;;2602957;54;21678;31
2023/04/17 00:27:36;;;;;;;29.73;22.05;;;9.50;99.90;;;;;;2603676;54;20026;31
2023/04/17 00:30:12;;;;;;;32.33;22.30;;;9.50;99.90;;;;;;2702134;39;22433;31
2023/04/17 00:32:46;;;;;;;31.88;21.80;;;9.50;99.90;;;;;;2603542;54;20908;31
2023/04/17 00:35:22;;;;;;;36.05;25.75;;;9.50;99.90;;;;;;2622289;46;20033;31
2023/04/17 00:37:58;;;;;;;;;;;9.50;99.90;;;;;;2621990;46;25036;31
2023/04/17 00:40:34;;;;;;;31.60;22.80;;;9.50;99.90;;;;;;2617411;46;19949;31
2023/04/17 00:43:16;;;;;;;29.08;20.98;;;9.50;99.90;;;;;;2603596;54;20038;31
2023/04/17 00:45:55;;;;;;;33.53;24.67;;;9.60;99.90;;;;;;2603586;54;20030;31
2023/04/17 00:48:31;;;;;;;31.77;22.88;;;9.50;99.90;;;;;;2603539;54;20026;31
2023/04/17 00:51:11;;;;;;;40.85;26.65;;;9.50;99.90;;;;;;2609566;46;20157;31
2023/04/17 00:53:48;;;;;;;153.25;56.83;;;9.50;99.90;;;;;;2603778;54;20026;31
2023/04/17 00:56:26;;;;;;;126.32;52.90;;;9.60;99.90;;;;;;2603499;54;20105;31
2023/04/17 00:59:00;;;;;;;82.13;42.83;;;9.60;99.90;;;;;;2621916;46;20037;31
2023/04/17 01:01:38;;;;;;;62.60;34.95;;;9.50;99.90;;;;;;2603523;54;20105;31
2023/04/17 01:04:16;;;;;;;44.92;29.52;;;9.50;99.90;;;;;;2621749;46;20135;31
2023/04/17 01:06:52;;;;;;;45.92;30.63;;;9.50;99.90;;;;;;2603521;54;20038;31
2023/04/17 01:09:28;;;;;;;36.97;25.77;;;9.50;99.90;;;;;;2603635;54;20023;31
2023/04/17 01:12:19;;;;;;;36.13;25.48;;;9.40;99.90;;;;;;2603188;54;20690;31
2023/04/17 01:14:54;;;;;;;33.72;24.58;;;9.40;99.90;;;;;;2603594;54;20037;31
2023/04/17 01:17:31;;;;;;;38.05;26.25;;;9.30;99.90;;;;;;2621938;46;20089;31
2023/04/17 01:20:12;;;;;;;28.02;20.85;;;9.30;99.90;;;;;;2603637;54;20030;31
2023/04/17 01:22:51;;;;;;;34.45;24.90;;;9.20;99.90;;;;;;2603454;54;20050;31
2023/04/17 01:25:31;;;;;;;33.63;22.98;;;9.20;99.90;;;;;;2603428;54;20022;31
2023/04/17 01:28:07;;;;;;;23.75;17.88;;;9.10;99.90;;;;;;2602447;54;20022;31
2023/04/17 01:30:44;;;;;;;31.25;23.33;;;9.10;99.90;;;;;;2602773;54;20026;31
2023/04/17 01:33:22;;;;;;;27.65;20.88;;;9.00;99.90;;;;;;2603280;54;20061;31
2023/04/17 01:35:58;;;;;;;25.27;18.77;;;9.10;99.90;;;;;;2603379;54;20027;31
2023/04/17 01:38:34;;;;;;;23.40;17.40;;;9.10;99.90;;;;;;2603322;54;20830;31
2023/04/17 01:41:13;;;;;;;;;;;9.10;99.90;;;;;;2622271;46;20620;31
2023/04/17 01:43:51;;;;;;;32.03;22.73;;;9.10;99.90;;;;;;2603394;54;20004;31
2023/04/17 01:49:06;;;;;;;25.25;17.90;;;9.10;99.90;;;;;;2602652;54;21287;31
2023/04/17 01:51:44;;;;;;;26.90;18.38;;;9.00;99.90;;;;;;2603614;54;20026;31
2023/04/17 01:54:20;;;;;;;27.00;19.55;;;9.00;99.90;;;;;;2701782;39;20464;31
2023/04/17 01:56:58;;;;;;;24.77;18.23;;;9.00;99.90;;;;;;2603194;54;20052;31
2023/04/17 01:59:33;;;;;;;22.85;16.25;;;9.00;99.90;;;;;;2621827;46;20031;31
2023/04/17 02:02:11;;;;;;;21.05;15.90;;;8.90;99.90;;;;;;2603348;54;20022;31
2023/04/17 02:04:47;;;;;;;25.40;17.20;;;9.00;99.90;;;;;;2603548;54;20821;31
2023/04/17 02:07:23;;;;;;;27.30;20.27;;;9.00;99.90;;;;;;2603427;54;20037;31
2023/04/17 02:09:59;;;;;;;29.50;21.85;;;9.00;99.90;;;;;;2603605;54;20263;31
2023/04/17 02:12:38;;;;;;;22.05;17.15;;;8.90;99.90;;;;;;2602510;54;20786;31
2023/04/17 02:15:15;;;;;;;25.70;17.33;;;8.90;99.90;;;;;;2615545;46;20033;31
2023/04/17 02:17:51;;;;;;;27.73;20.70;;;8.90;99.90;;;;;;2603283;54;20084;31
2023/04/17 02:20:30;;;;;;;31.60;21.88;;;9.00;99.90;;;;;;2621929;46;20026;31
2023/04/17 02:23:06;;;;;;;31.05;23.02;;;9.00;99.90;;;;;;2602969;54;20027;31
2023/04/17 02:25:42;;;;;;;29.95;21.13;;;8.90;99.90;;;;;;2621799;46;20030;31
2023/04/17 02:28:23;;;;;;;31.80;22.00;;;8.90;99.90;;;;;;2621632;46;20038;31
2023/04/17 02:30:59;;;;;;;30.33;20.38;;;8.90;99.90;;;;;;2603309;54;20026;31
2023/04/17 02:33:37;;;;;;;28.40;20.50;;;8.90;99.90;;;;;;2621842;46;20032;31
2023/04/17 02:36:15;;;;;;;28.83;21.33;;;8.90;99.90;;;;;;2615921;46;20033;31
2023/04/17 02:38:54;;;;;;;29.50;21.00;;;8.90;99.90;;;;;;2602345;54;20078;31
2023/04/17 02:41:30;;;;;;;26.55;19.70;;;8.90;99.90;;;;;;2602653;54;20050;31
2023/04/17 02:44:08;;;;;;;27.33;20.05;;;8.90;99.90;;;;;;2602435;54;20061;31
2023/04/17 02:46:47;;;;;;;42.40;25.48;;;8.90;99.90;;;;;;2602349;54;20112;31
2023/04/17 02:49:24;;;;;;;33.92;24.75;;;8.90;99.90;;;;;;2603141;54;20022;31
2023/04/17 02:52:02;;;;;;;40.38;29.45;;;8.90;99.90;;;;;;2617793;46;20065;31
2023/04/17 02:54:37;;;;;;;38.20;28.05;;;8.90;99.90;;;;;;2621676;46;20941;31
2023/04/17 02:57:19;;;;;;;37.35;27.50;;;8.90;99.90;;;;;;2603212;54;20975;31
2023/04/17 03:00:02;;;;;;;34.63;25.45;;;8.90;99.90;;;;;;2603030;54;20030;31
2023/04/17 03:02:37;;;;;;;30.40;22.58;;;8.90;99.90;;;;;;2602534;54;20026;31
2023/04/17 03:05:16;;;;;;;32.10;23.97;;;8.90;99.90;;;;;;2602528;54;20033;31
2023/04/17 03:07:54;;;;;;;34.03;25.42;;;8.90;99.90;;;;;;2603220;54;20076;31
2023/04/17 03:10:30;;;;;;;37.15;26.10;;;8.90;99.90;;;;;;2603241;54;20026;31
2023/04/17 03:13:05;;;;;;;36.77;26.03;;;8.90;99.90;;;;;;2603023;54;20160;31
2023/04/17 03:15:44;;;;;;;34.97;24.95;;;8.90;99.90;;;;;;2602501;54;20053;31
2023/04/17 03:18:23;;;;;;;32.83;22.30;;;9.00;99.90;;;;;;2603086;54;20038;31
2023/04/17 03:20:57;;;;;;;40.42;26.95;;;8.90;99.90;;;;;;2603033;54;20026;31
2023/04/17 03:23:34;;;;;;;34.90;23.80;;;9.00;99.90;;;;;;2603093;54;20033;31
2023/04/17 03:26:08;;;;;;;30.90;21.85;;;9.00;99.90;;;;;;2603770;54;20267;31
2023/04/17 03:28:44;;;;;;;38.25;26.75;;;9.00;99.90;;;;;;2603712;54;20033;31
2023/04/17 03:31:27;;;;;;;36.25;26.48;;;9.00;99.90;;;;;;2702278;39;21511;31
2023/04/17 03:34:03;;;;;;;35.15;24.13;;;9.00;99.90;;;;;;2603922;54;20036;31
2023/04/17 03:36:41;;;;;;;34.05;24.20;;;9.00;99.90;;;;;;2603639;54;20026;31
2023/04/17 03:39:17;;;;;;;31.63;22.30;;;9.00;99.90;;;;;;2603588;54;20026;31
2023/04/17 03:41:53;;;;;;;31.40;23.67;;;9.10;99.90;;;;;;2603781;54;20875;31
2023/04/17 03:44:30;;;;;;;28.83;20.77;;;9.10;99.90;;;;;;2603848;54;20108;31
2023/04/17 03:47:09;;;;;;;34.78;24.35;;;9.10;99.90;;;;;;2714544;39;20406;31
2023/04/17 03:49:43;;;;;;;34.78;24.13;;;9.10;99.90;;;;;;2603020;54;22416;31
2023/04/17 03:52:21;;;;;;;34.88;25.67;;;9.10;99.90;;;;;;2603169;54;20835;31
2023/04/17 03:55:02;;;;;;;33.40;24.00;;;9.10;99.90;;;;;;2602934;54;20031;31
2023/04/17 03:57:39;;;;;;;35.23;25.67;;;9.00;99.90;;;;;;2603142;54;20034;31
2023/04/17 04:00:18;;;;;;;34.92;25.50;;;9.10;99.90;;;;;;2602908;54;20045;31
2023/04/17 04:03:04;;;;;;;40.92;27.83;;;9.00;99.90;;;;;;2621983;46;20944;31
2023/04/17 04:05:47;;;;;;;38.03;25.83;;;9.00;99.90;;;;;;2603726;54;20104;31
2023/04/17 04:08:23;;;;;;;34.85;24.45;;;9.00;99.90;;;;;;2603758;54;20037;31
2023/04/17 04:11:02;;;;;;;37.30;26.20;;;9.10;99.90;;;;;;2603586;54;20730;31
2023/04/17 04:13:44;;;;;;;36.50;25.05;;;9.10;99.90;;;;;;2603754;54;20860;31
2023/04/17 04:16:19;;;;;;;40.10;26.73;;;9.10;99.90;;;;;;2603639;54;20026;31
2023/04/17 04:19:02;;;;;;;44.60;28.83;;;9.10;99.90;;;;;;2603759;54;20022;31
2023/04/17 04:21:42;;;;;;;40.35;27.60;;;9.10;99.90;;;;;;2603109;54;20756;31
2023/04/17 04:24:20;;;;;;;44.63;29.95;;;9.10;99.90;;;;;;2603807;54;20026;31
2023/04/17 04:27:03;;;;;;;37.85;27.23;;;9.20;99.90;;;;;;2702604;39;21016;31
2023/04/17 04:29:44;;;;;;;48.03;31.42;;;9.20;99.90;;;;;;2603925;54;20582;31
2023/04/17 04:32:24;;;;;;;42.40;29.67;;;9.20;99.90;;;;;;2603800;54;20884;31
2023/04/17 04:35:00;;;;;;;37.25;28.40;;;9.30;99.90;;;;;;2702062;39;20621;31
2023/04/17 04:37:41;;;;;;;38.70;27.35;;;9.30;99.90;;;;;;2603630;54;20886;31
2023/04/17 04:40:18;;;;;;;34.90;26.65;;;9.40;99.90;;;;;;2622292;46;20023;31
2023/04/17 04:42:59;;;;;;;35.47;26.55;;;9.50;99.90;;;;;;2603785;54;20081;31
2023/04/17 04:45:42;;;;;;;38.78;28.15;;;9.60;99.90;;;;;;2622020;46;20027;31
2023/04/17 04:48:22;;;;;;;37.10;28.45;;;9.60;99.90;;;;;;2603668;54;20152;31
2023/04/17 04:50:58;;;;;;;43.22;28.33;;;9.70;99.90;;;;;;2603605;54;20027;31
2023/04/17 04:53:39;;;;;;;39.05;28.30;;;9.70;99.90;;;;;;2603573;54;20032;31
2023/04/17 04:56:22;;;;;;;38.65;27.80;;;9.70;99.90;;;;;;2603523;54;20073;31
2023/04/17 04:58:58;;;;;;;42.88;29.98;;;9.80;99.90;;;;;;2603674;54;20045;31
2023/04/17 05:01:38;;;;;;;44.78;30.02;;;9.90;99.90;;;;;;2602670;54;20101;31
2023/04/17 05:04:16;;;;;;;39.45;27.73;;;9.90;99.90;;;;;;2622080;46;20053;31
2023/04/17 05:06:55;;;;;;;39.95;28.23;;;10.10;99.90;;;;;;2602719;54;20030;31
2023/04/17 05:09:37;;;;;;;40.60;16.95;;;10.20;99.90;;;;;;2603260;54;20752;31
2023/04/17 05:12:13;;;;;;;34.88;26.95;;;10.40;99.90;;;;;;2603665;54;20081;31
2023/04/17 05:14:51;;;;;;;33.35;26.33;;;10.70;99.90;;;;;;2603236;54;20838;31
2023/04/17 05:17:30;;;;;;;40.10;29.63;;;10.90;99.90;;;;;;2603646;54;20030;31
2023/04/17 05:20:05;;;;;;;39.95;29.73;;;11.00;99.90;;;;;;2610122;46;22428;31
2023/04/17 05:22:46;;;;;;;38.95;29.80;;;11.20;99.90;;;;;;2602570;54;20029;31
2023/04/17 05:25:29;;;;;;;40.25;29.80;;;11.40;99.90;;;;;;2603394;54;20090;31
2023/04/17 05:28:09;;;;;;;41.75;30.40;;;11.50;99.90;;;;;;2621909;46;20104;31
2023/04/17 05:30:47;;;;;;;34.63;28.48;;;11.60;99.90;;;;;;2602565;54;20031;31
2023/04/17 05:33:34;;;;;;;38.72;29.55;;;11.80;99.90;;;;;;2603596;54;20022;31
2023/04/17 05:36:12;;;;;;;37.85;27.50;;;11.90;99.90;;;;;;2610376;46;21339;31
2023/04/17 05:38:49;;;;;;;37.75;26.38;;;12.00;99.90;;;;;;2602621;54;20938;31
2023/04/17 05:41:29;;;;;;;35.45;26.58;;;12.20;99.90;;;;;;2603590;54;20056;31
2023/04/17 05:44:08;;;;;;;33.08;26.55;;;12.40;99.90;;;;;;2701841;39;20492;31
2023/04/17 05:46:43;;;;;;;36.00;28.48;;;12.60;99.90;;;;;;2621230;46;20846;31
2023/04/17 05:49:19;;;;;;;36.05;29.25;;;12.70;99.90;;;;;;2602881;54;20030;31
2023/04/17 05:51:55;;;;;;;36.58;29.75;;;12.90;99.90;;;;;;2603622;54;20037;31
2023/04/17 05:54:33;;;;;;;37.50;28.65;;;13.10;99.90;;;;;;2621647;46;20125;31
2023/04/17 05:57:14;;;;;;;37.03;28.58;;;13.30;99.90;;;;;;2603428;54;20026;31
2023/04/17 05:59:59;;;;;;;32.33;21.70;;;13.40;99.90;;;;;;2603186;54;20161;31
2023/04/17 06:02:36;;;;;;;26.63;22.40;;;13.60;99.90;;;;;;2622009;46;20605;31
2023/04/17 06:05:15;;;;;;;27.73;22.20;;;13.80;99.90;;;;;;2603330;54;20857;31
2023/04/17 06:07:54;;;;;;;31.95;24.10;;;13.90;99.90;;;;;;2621985;46;20022;31
2023/04/17 06:10:29;;;;;;;33.85;24.85;;;14.20;99.90;;;;;;2603364;54;20680;31
2023/04/17 06:13:06;;;;;;;31.13;24.38;;;14.20;99.90;;;;;;2720509;39;21536;31
2023/04/17 06:15:47;;;;;;;31.05;24.00;;;14.50;99.90;;;;;;2602788;54;20014;31
2023/04/17 06:18:27;;;;;;;28.30;23.55;;;14.70;99.90;;;;;;2604912;46;20034;31
2023/04/17 06:21:04;;;;;;;29.50;22.53;;;15.00;99.90;;;;;;2621703;46;20030;31
2023/04/17 06:23:40;;;;;;;25.63;21.30;;;15.10;99.90;;;;;;2603290;54;20049;31
2023/04/17 06:26:18;;;;;;;28.00;21.38;;;15.20;99.90;;;;;;2701849;39;20510;31
2023/04/17 06:29:15;;;;;;;;;;;;;;;;;;;;;
2023/04/17 06:35:03;;;;;;;24.97;18.40;;;15.90;99.90;;;;;;2601335;54;20022;31
2023/04/17 06:37:49;;;;;;;24.75;19.85;;;16.30;99.90;;;;;;2602583;54;20033;31
2023/04/17 06:40:41;;;;;;;23.95;19.95;;;16.40;99.90;;;;;;2603166;54;20023;31
2023/04/17 06:43:21;;;;;;;23.13;19.42;;;16.30;99.90;;;;;;2602506;54;19953;31
2023/04/17 06:45:59;;;;;;;25.80;19.50;;;16.30;99.90;;;;;;2602617;54;20768;31
2023/04/17 06:48:46;;;;;;;25.63;20.08;;;16.20;99.90;;;;;;2602867;46;22538;31
2023/04/17 06:51:24;;;;;;;23.52;19.70;;;15.90;99.90;;;;;;2601950;54;20031;31
2023/04/17 06:54:02;;;;;;;24.17;19.83;;;15.90;99.90;;;;;;2602131;54;20080;31
2023/04/17 06:56:40;;;;;;;22.43;18.73;;;16.00;99.90;;;;;;2700927;39;21611;31
2023/04/17 06:59:16;;;;;;;21.05;18.25;;;16.30;99.90;;;;;;2621353;46;19938;31
2023/04/17 07:01:53;;;;;;;21.40;18.23;;;16.50;99.90;;;;;;2602717;54;20958;31
2023/04/17 07:04:33;;;;;;;20.73;18.48;;;16.50;99.90;;;;;;2603220;54;20048;31
2023/04/17 07:07:14;;;;;;;24.08;19.02;;;16.70;99.90;;;;;;2603037;54;20598;31
2023/04/17 07:09:52;;;;;;;22.35;18.90;;;16.80;99.90;;;;;;2621493;46;20078;31
2023/04/17 07:12:28;;;;;;;21.15;18.75;;;16.90;99.90;;;;;;2603074;54;20117;31
2023/04/17 07:15:05;;;;;;;22.27;18.20;;;17.00;99.90;;;;;;2603157;54;20027;31
2023/04/17 07:17:44;;;;;;;23.85;19.90;;;17.00;99.90;;;;;;2602998;54;20027;31
2023/04/17 07:20:22;;;;;;;25.77;19.97;;;17.10;99.90;;;;;;2603138;54;20034;31
2023/04/17 07:23:02;;;;;;;23.77;18.67;;;17.10;99.90;;;;;;2603051;54;20050;31
2023/04/17 07:25:43;;;;;;;22.20;19.40;;;17.20;99.90;;;;;;2603207;54;20029;31
2023/04/17 07:28:18;;;;;;;23.77;19.08;;;17.30;99.90;;;;;;2701294;39;20503;31
2023/04/17 07:30:56;;;;;;;20.95;17.25;;;17.40;99.90;;;;;;2603202;54;20037;31
2023/04/17 07:33:32;;;;;;;21.23;17.52;;;17.50;99.90;;;;;;2602729;54;20785;31
2023/04/17 07:36:11;;;;;;;20.55;18.35;;;17.80;99.90;;;;;;2602398;54;20736;31
2023/04/17 07:38:46;;;;;;;22.65;17.60;;;18.00;99.90;;;;;;2602836;54;20030;31
2023/04/17 07:41:27;;;;;;;20.98;18.35;;;18.10;99.90;;;;;;2602883;54;20744;31
2023/04/17 07:44:06;;;;;;;22.00;18.95;;;18.30;99.90;;;;;;2706882;39;20475;31
2023/04/17 07:46:47;;;;;;;23.58;16.83;;;18.30;99.90;;;;;;2621376;47;20030;31
2023/04/17 07:49:25;;;;;;;20.35;16.90;;;18.40;99.90;;;;;;2603045;54;20037;31
2023/04/17 07:52:03;;;;;;;19.52;17.10;;;18.40;99.90;;;;;;2603142;54;20567;31
2023/04/17 07:54:42;;;;;;;20.75;18.00;;;18.60;99.90;;;;;;2602915;54;20026;31
2023/04/17 07:57:20;;;;;;;21.05;17.35;;;18.80;99.90;;;;;;2701329;39;20572;31
2023/04/17 07:59:56;;;;;;;19.55;16.70;;;19.00;99.90;;;;;;2621472;47;20034;31
2023/04/17 08:02:33;;;;;;;22.00;17.20;;;19.00;99.90;;;;;;2602687;54;20693;31
2023/04/17 08:05:10;;;;;;;17.27;15.32;;;19.00;99.90;;;;;;2602784;54;20099;31
2023/04/17 08:07:46;;;;;;;20.02;17.83;;;19.20;99.90;;;;;;2602765;54;20116;31
2023/04/17 08:10:27;;;;;;;20.80;17.45;;;19.30;99.90;;;;;;2603032;54;20061;31
2023/04/17 08:13:08;;;;;;;22.10;17.40;;;19.40;99.90;;;;;;2603869;54;20137;31
2023/04/17 08:15:46;;;;;;;22.75;18.52;;;19.50;99.90;;;;;;2621816;46;20085;31
2023/04/17 08:18:23;;;;;;;22.58;19.85;;;19.70;99.90;;;;;;2603751;54;20085;31
2023/04/17 08:21:01;;;;;;;21.75;19.00;;;19.60;99.90;;;;;;2622153;46;20026;31
2023/04/17 08:23:40;;;;;;;22.95;19.65;;;19.60;99.90;;;;;;2603926;54;19934;31
2023/04/17 08:26:19;;;;;;;22.95;17.98;;;19.50;99.90;;;;;;2603574;54;20026;31
2023/04/17 08:29:00;;;;;;;21.75;18.20;;;19.60;99.90;;;;;;2603481;54;20051;31
2023/04/17 08:31:39;;;;;;;21.92;19.27;;;19.70;99.90;;;;;;2603583;54;20766;31
2023/04/17 08:34:20;;;;;;;28.58;21.60;;;19.80;99.90;;;;;;2603734;54;20026;31
2023/04/17 08:36:55;;;;;;;26.77;20.08;;;19.70;99.90;;;;;;2621990;46;20041;31
2023/04/17 08:39:34;;;;;;;22.40;19.98;;;19.70;99.90;;;;;;2603695;54;20026;31
2023/04/17 08:42:09;;;;;;;26.00;20.50;;;19.70;99.90;;;;;;2603622;54;20031;31
2023/04/17 08:44:55;;;;;;;26.43;22.53;;;19.90;99.90;;;;;;2622051;46;19934;31
2023/04/17 08:47:33;;;;;;;26.10;21.33;;;19.80;99.90;;;;;;2621849;46;20918;31
2023/04/17 08:50:12;;;;;;;27.02;22.48;;;19.90;99.90;;;;;;2603385;54;20919;31
2023/04/17 08:52:48;;;;;;;22.70;20.20;;;19.90;99.90;;;;;;2603631;54;20046;31
2023/04/17 08:55:28;;;;;;;23.92;19.92;;;19.70;99.90;;;;;;2621921;46;20046;31
2023/04/17 08:58:07;;;;;;;24.08;20.67;;;19.70;99.90;;;;;;2621784;46;20030;31
2023/04/17 09:00:47;;;;;;;22.88;19.35;;;19.80;99.90;;;;;;2602923;54;22153;31
2023/04/17 09:03:24;;;;;;;22.48;19.42;;;19.80;99.90;;;;;;2603633;54;20018;31
2023/04/17 09:05:59;;;;;;;22.77;19.52;;;19.40;99.90;;;;;;2701303;39;21634;31
2023/04/17 09:08:41;;;;;;;23.10;19.88;;;19.50;99.90;;;;;;2621891;46;20060;31
2023/04/17 09:11:21;;;;;;;23.95;20.70;;;19.40;99.90;;;;;;2603486;54;20879;31
2023/04/17 09:14:05;;;;;;;41.25;25.15;;;19.30;99.90;;;;;;2621919;46;20902;31
2023/04/17 09:16:56;;;;;;;29.70;23.35;;;19.40;99.90;;;;;;2603317;54;20030;31
2023/04/17 09:19:32;;;;;;;25.10;21.15;;;19.30;99.90;;;;;;2621799;46;20026;31
2023/04/17 09:22:25;;;;;;;30.55;23.88;;;19.40;99.90;;;;;;2621395;46;20056;31
2023/04/17 09:25:02;;;;;;;24.67;21.37;;;19.40;99.90;;;;;;2603520;54;20049;31
2023/04/17 09:27:49;;;;;;;27.33;21.80;;;19.40;99.90;;;;;;2621928;46;20970;31
2023/04/17 09:30:28;;;;;;;26.65;21.85;;;19.40;99.90;;;;;;2702032;39;21500;31
2023/04/17 09:33:11;;;;;;;29.05;22.55;;;19.00;99.90;;;;;;2603524;54;20032;31
2023/04/17 09:35:49;;;;;;;26.77;22.45;;;18.70;99.90;;;;;;2602622;54;20029;31
2023/04/17 09:38:41;;;;;;;29.73;21.98;;;18.50;99.90;;;;;;2621686;46;20026;31
2023/04/17 09:41:29;;;;;;;26.02;20.80;;;18.40;99.90;;;;;;2621795;46;20026;31
2023/04/17 09:44:14;;;;;;;25.83;21.20;;;18.40;99.90;;;;;;2603570;54;20029;31
2023/04/17 09:46:50;;;;;;;24.70;21.50;;;18.30;99.90;;;;;;2603427;54;20030;31
2023/04/17 09:49:48;;;;;;;25.93;19.33;;;18.50;99.90;;;;;;2621876;46;20027;31
2023/04/17 09:52:25;;;;;;;23.73;20.20;;;18.60;99.90;;;;;;2603424;54;20239;31
2023/04/17 09:55:05;;;;;;;27.93;21.07;;;18.40;99.90;;;;;;2720367;39;20487;31
2023/04/17 09:57:40;;;;;;;27.63;21.55;;;18.20;99.90;;;;;;2603027;54;20052;31
2023/04/17 10:00:21;;;;;;;23.45;20.08;;;17.90;99.90;;;;;;2603466;54;20030;31
2023/04/17 10:02:58;;;;;;;23.13;19.63;;;17.80;99.90;;;;;;2613589;46;20842;31
2023/04/17 10:05:52;;;;;;;24.75;19.30;;;18.00;99.90;;;;;;2621709;46;20254;31
2023/04/17 10:08:32;;;;;;;22.10;19.55;;;18.20;99.90;;;;;;2603266;54;20909;31
2023/04/17 10:11:10;;;;;;;23.00;20.43;;;18.30;99.90;;;;;;2603177;54;20771;31
2023/04/17 10:13:48;;;;;;;24.40;19.73;;;18.30;99.90;;;;;;2621644;46;20987;31
2023/04/17 10:16:28;;;;;;;24.60;19.33;;;18.10;99.90;;;;;;2621441;46;20710;31
2023/04/17 10:19:21;;;;;;;24.20;18.98;;;18.00;99.90;;;;;;2621208;46;20855;31
2023/04/17 10:22:32;;;;;;;27.40;19.60;;;17.90;99.90;;;;;;2603476;54;19935;31
2023/04/17 10:25:25;;;;;;;26.15;19.52;;;17.70;99.90;;;;;;2603545;54;20903;31
2023/04/17 10:28:03;;;;;;;20.97;17.33;;;17.30;99.90;;;;;;2603292;54;20030;31
2023/04/17 10:30:39;;;;;;;22.58;18.70;;;17.30;99.90;;;;;;2603279;54;21361;31
2023/04/17 10:33:25;;;;;;;20.88;17.20;;;17.10;99.90;;;;;;2603091;54;20030;31
2023/04/17 10:36:01;;;;;;;23.35;20.17;;;17.10;99.90;;;;;;2603123;54;20045;31
2023/04/17 10:38:38;;;;;;;;;;;17.00;99.90;;;;;;2621509;46;20033;31
2023/04/17 10:43:54;;;;;;;20.95;17.83;;;16.90;99.90;;;;;;2603241;54;20832;31
2023/04/17 10:46:30;;;;;;;23.50;19.17;;;16.90;99.90;;;;;;2603331;54;20774;31
2023/04/17 10:49:07;;;;;;;20.38;17.42;;;17.10;99.90;;;;;;2603071;54;21107;31
2023/04/17 10:51:45;;;;;;;19.70;16.70;;;17.10;99.90;;;;;;2602861;54;20034;31
2023/04/17 10:54:21;;;;;;;18.48;15.93;;;17.20;99.90;;;;;;2603273;54;20946;31
2023/04/17 10:56:57;;;;;;;21.38;16.33;;;17.40;99.90;;;;;;2603223;54;20030;31
2023/04/17 10:59:35;;;;;;;;;;;17.40;99.90;;;;;;2603303;54;20879;31
2023/04/17 11:02:10;;;;;;;15.75;14.05;;;17.40;99.90;;;;;;2621652;46;19938;31
2023/04/17 11:04:48;;;;;;;14.80;13.30;;;17.50;99.90;;;;;;2603196;54;20046;31
2023/04/17 11:07:23;;;;;;;15.52;13.90;;;17.50;99.90;;;;;;2621843;46;20038;31
2023/04/17 11:10:01;;;;;;;17.80;13.13;;;17.40;99.90;;;;;;2602992;54;20170;31
2023/04/17 11:12:38;;;;;;;15.43;13.32;;;17.30;99.90;;;;;;2621445;46;20606;31
2023/04/17 11:15:17;;;;;;;14.65;13.07;;;17.30;99.90;;;;;;2602509;54;20882;31
2023/04/17 11:17:58;;;;;;;15.52;12.63;;;17.10;99.90;;;;;;2603280;54;20031;31
2023/04/17 11:20:34;;;;;;;15.43;13.80;;;17.00;99.90;;;;;;2621593;47;20030;31
2023/04/17 11:23:14;;;;;;;13.30;11.90;;;16.90;99.90;;;;;;2602975;54;20022;31
2023/04/17 11:25:51;;;;;;;14.15;11.85;;;16.80;99.90;;;;;;2603061;54;20031;31
2023/04/17 11:28:28;;;;;;;14.32;12.07;;;16.80;99.90;;;;;;2603135;54;20805;31
2023/04/17 11:31:08;;;;;;;15.52;12.93;;;16.80;99.90;;;;;;2602401;54;20028;31
2023/04/17 11:33:46;;;;;;;15.10;12.82;;;16.90;99.90;;;;;;2603237;54;20053;31
2023/04/17 11:36:20;;;;;;;14.98;13.38;;;16.80;99.90;;;;;;2603198;54;19935;31
2023/04/17 11:38:59;;;;;;;;;;;16.80;99.90;;;;;;2621662;47;20046;31
2023/04/17 11:41:41;;;;;;;15.55;12.95;;;16.90;99.90;;;;;;2602913;54;19989;31
2023/04/17 11:44:16;;;;;;;13.90;12.38;;;16.90;99.90;;;;;;2621351;47;20035;31
2023/04/17 11:46:57;;;;;;;17.30;13.73;;;17.00;99.90;;;;;;2603597;54;20030;31
2023/04/17 11:49:35;;;;;;;15.90;13.43;;;16.90;99.90;;;;;;2603680;54;20864;31
2023/04/17 11:52:17;;;;;;;16.13;13.82;;;16.80;99.90;;;;;;2603916;54;20030;31
2023/04/17 11:54:59;;;;;;;16.95;13.93;;;16.80;99.90;;;;;;2603886;54;20022;31
2023/04/17 11:57:43;;;;;;;12.68;11.00;;;16.90;99.90;;;;;;2603814;54;19941;31
2023/04/17 12:00:26;;;;;;;12.40;11.05;;;16.90;99.90;;;;;;2603944;54;19942;31
2023/04/17 12:03:04;;;;;;;14.77;12.52;;;17.00;99.90;;;;;;2603582;54;20026;31
2023/04/17 12:05:41;;;;;;;15.40;12.50;;;17.00;99.90;;;;;;2603512;54;20038;31
2023/04/17 12:08:23;;;;;;;12.05;10.85;;;17.00;99.90;;;;;;2702326;39;20503;31
2023/04/17 12:11:00;;;;;;;13.73;12.18;;;17.20;99.90;;;;;;2603699;54;20141;31
2023/04/17 12:13:42;;;;;;;16.33;13.13;;;17.10;99.90;;;;;;2603548;54;20010;31
2023/04/17 12:16:20;;;;;;;14.15;12.73;;;17.10;99.90;;;;;;2607068;46;20031;31
2023/04/17 12:19:01;;;;;;;13.60;12.18;;;17.10;99.90;;;;;;2621591;46;20160;31
2023/04/17 12:21:43;;;;;;;11.93;10.73;;;17.10;99.90;;;;;;2621907;46;20033;31
2023/04/17 12:24:22;;;;;;;14.40;12.02;;;17.10;99.90;;;;;;2603638;54;20031;31
2023/04/17 12:27:02;;;;;;;13.13;11.80;;;17.10;99.90;;;;;;2603500;54;20829;31
2023/04/17 12:29:41;;;;;;;17.58;12.63;;;17.10;99.90;;;;;;2603683;54;20300;31
2023/04/17 12:32:19;;;;;;;14.80;13.40;;;17.10;99.90;;;;;;2603624;54;20052;31
2023/04/17 12:35:01;;;;;;;14.02;12.57;;;17.00;99.90;;;;;;2622098;46;20065;31
2023/04/17 12:37:39;;;;;;;16.20;12.63;;;16.90;99.90;;;;;;2603051;54;20023;31
2023/04/17 12:40:18;;;;;;;14.77;13.23;;;16.80;99.90;;;;;;2620543;46;20050;31
2023/04/17 12:42:59;;;;;;;13.68;12.27;;;16.90;99.90;;;;;;2603755;54;20892;31
2023/04/17 12:45:40;;;;;;;13.65;12.20;;;16.90;99.90;;;;;;2603692;54;20836;31
2023/04/17 12:48:18;;;;;;;11.17;10.07;;;16.90;99.90;;;;;;2701449;39;20495;31
2023/04/17 12:51:00;;;;;;;12.60;11.40;;;17.00;99.90;;;;;;2614803;46;20045;31
2023/04/17 12:53:39;;;;;;;14.30;11.73;;;17.00;99.90;;;;;;2603678;54;20049;31
2023/04/17 12:56:18;;;;;;;13.60;10.95;;;17.00;99.90;;;;;;2603718;54;20152;31
2023/04/17 12:58:55;;;;;;;12.70;11.02;;;17.00;99.90;;;;;;2603418;54;20052;31
2023/04/17 13:01:33;;;;;;;13.50;10.82;;;17.00;99.90;;;;;;2603447;54;20022;31
2023/04/17 13:04:11;;;;;;;12.00;10.70;;;17.00;99.90;;;;;;2603417;54;20939;31
2023/04/17 13:06:55;;;;;;;11.15;10.02;;;17.00;99.90;;;;;;2603471;54;20867;31
2023/04/17 13:09:32;;;;;;;11.48;10.38;;;17.00;99.90;;;;;;2603649;54;19934;31
2023/04/17 13:12:11;;;;;;;11.10;10.10;;;17.00;99.90;;;;;;2602628;54;20034;31
2023/04/17 13:14:48;;;;;;;11.80;10.70;;;17.00;99.90;;;;;;2720749;39;21634;31
2023/04/17 13:17:27;;;;;;;10.27;9.20;;;17.00;99.90;;;;;;2603435;54;20962;31
2023/04/17 13:20:07;;;;;;;28.58;11.68;;;17.00;99.90;;;;;;2602678;54;20033;31
2023/04/17 13:22:50;;;;;;;11.95;10.70;;;17.00;99.90;;;;;;2607478;46;20022;31
2023/04/17 13:25:27;;;;;;;12.60;10.60;;;16.90;99.90;;;;;;2611368;46;19942;31
2023/04/17 13:28:05;;;;;;;12.95;11.00;;;16.90;99.90;;;;;;2602853;54;20769;31
2023/04/17 13:30:44;;;;;;;11.85;10.75;;;16.80;99.90;;;;;;2603376;54;20026;31
2023/04/17 13:33:22;;;;;;;13.35;11.93;;;16.80;99.90;;;;;;2701955;39;20494;31
2023/04/17 13:35:58;;;;;;;14.30;11.83;;;16.80;99.90;;;;;;2773520;31;20534;31
2023/04/17 13:38:38;;;;;;;12.98;11.60;;;16.80;99.90;;;;;;2602612;54;20837;31
2023/04/17 13:41:16;;;;;;;10.15;9.10;;;16.80;99.90;;;;;;2602713;54;22406;31
2023/04/17 13:43:57;;;;;;;8.83;7.93;;;16.90;99.90;;;;;;2602612;54;20206;31
2023/04/17 13:46:35;;;;;;;9.70;8.48;;;17.00;99.90;;;;;;2615240;46;22411;31
2023/04/17 13:49:18;;;;;;;11.02;9.50;;;17.10;99.90;;;;;;2603282;54;20864;31
2023/04/17 13:52:00;;;;;;;10.85;9.50;;;17.10;99.90;;;;;;2622015;46;20690;31